createdAt,value
2017-10-25T00:02:13.066Z,10.89
2017-10-25T00:04:40.567Z,10.81
2017-10-25T00:07:08.139Z,10.86
2017-10-25T00:09:35.769Z,10.74
2017-10-25T00:12:03.280Z,10.66
2017-10-25T00:14:30.822Z,10.65
2017-10-25T00:16:58.329Z,10.64
2017-10-25T00:19:25.852Z,10.61
2017-10-25T00:22:08.263Z,10.55
2017-10-25T00:27:31.995Z,10.69
2017-10-25T00:29:59.521Z,10.66
2017-10-25T00:32:27.036Z,10.82
2017-10-25T00:34:54.655Z,11.02
2017-10-25T00:37:22.154Z,11.31
2017-10-25T00:39:49.664Z,11.36
2017-10-25T00:42:17.172Z,11.37
2017-10-25T00:44:44.682Z,11.70
2017-10-25T00:47:12.198Z,11.52
2017-10-25T00:49:39.695Z,11.62
2017-10-25T00:52:07.196Z,11.75
2017-10-25T00:54:34.716Z,11.85
2017-10-25T00:57:02.239Z,11.77
2017-10-25T00:59:29.733Z,11.69
2017-10-25T01:01:57.261Z,11.68
2017-10-25T01:04:24.805Z,11.65
2017-10-25T01:06:52.316Z,11.82
2017-10-25T01:09:20.024Z,11.93
2017-10-25T01:11:47.545Z,11.93
2017-10-25T01:14:15.051Z,11.94
2017-10-25T01:16:45.792Z,11.97
2017-10-25T01:19:13.291Z,11.75
2017-10-25T01:21:40.807Z,11.68
2017-10-25T01:24:08.316Z,11.61
2017-10-25T01:26:35.829Z,11.68
2017-10-25T01:29:03.340Z,11.83
2017-10-25T01:31:30.910Z,12.01
2017-10-25T01:33:58.470Z,11.96
2017-10-25T01:36:30.104Z,11.90
2017-10-25T01:38:57.635Z,11.76
2017-10-25T01:41:25.147Z,11.61
2017-10-25T01:43:52.663Z,11.50
2017-10-25T01:46:20.202Z,11.46
2017-10-25T01:48:47.714Z,11.34
2017-10-25T01:51:15.236Z,11.28
2017-10-25T01:53:42.754Z,11.31
2017-10-25T01:56:10.271Z,10.88
2017-10-25T01:58:37.792Z,10.78
2017-10-25T02:01:05.351Z,10.63
2017-10-25T02:03:32.870Z,10.43
2017-10-25T02:06:00.381Z,10.59
2017-10-25T02:08:27.894Z,10.59
2017-10-25T02:10:55.394Z,10.59
2017-10-25T02:13:22.916Z,10.50
2017-10-25T02:15:50.421Z,10.65
2017-10-25T02:18:19.651Z,10.55
2017-10-25T02:20:47.144Z,10.67
2017-10-25T02:25:48.403Z,10.68
2017-10-25T02:28:15.938Z,10.67
2017-10-25T02:30:43.434Z,10.73
2017-10-25T02:33:10.951Z,10.95
2017-10-25T02:35:38.468Z,10.93
2017-10-25T02:38:05.992Z,10.96
2017-10-25T02:40:33.525Z,10.97
2017-10-25T02:43:01.030Z,10.84
2017-10-25T02:45:28.575Z,10.80
2017-10-25T02:47:56.113Z,10.73
2017-10-25T02:50:23.619Z,10.72
2017-10-25T02:52:51.137Z,10.78
2017-10-25T02:55:19.376Z,10.82
2017-10-25T02:57:46.883Z,10.82
2017-10-25T03:00:14.407Z,10.87
2017-10-25T03:02:41.914Z,10.91
2017-10-25T03:08:06.530Z,11.02
2017-10-25T03:10:34.044Z,11.02
2017-10-25T03:13:01.559Z,10.98
2017-10-25T03:15:29.060Z,10.96
2017-10-25T03:17:56.576Z,11.04
2017-10-25T03:20:24.096Z,11.27
2017-10-25T03:22:51.596Z,11.35
2017-10-25T03:25:19.134Z,11.31
2017-10-25T03:27:46.638Z,11.28
2017-10-25T03:30:14.147Z,11.34
2017-10-25T03:32:41.668Z,11.23
2017-10-25T03:35:09.180Z,11.02
2017-10-25T03:37:39.137Z,11.08
2017-10-25T03:40:06.689Z,11.09
2017-10-25T03:42:34.210Z,11.04
2017-10-25T03:45:01.743Z,11.12
2017-10-25T03:50:42.166Z,11.28
2017-10-25T03:53:09.688Z,11.02
2017-10-25T03:55:37.207Z,11.24
2017-10-25T04:09:39.599Z,10.66
2017-10-25T04:12:07.119Z,10.71
2017-10-25T04:14:34.640Z,10.43
2017-10-25T04:17:02.158Z,10.28
2017-10-25T04:19:29.681Z,10.27
2017-10-25T04:21:57.200Z,10.10
2017-10-25T04:24:24.728Z,10.11
2017-10-25T04:26:52.240Z,10.13
2017-10-25T04:29:19.744Z,10.15
2017-10-25T04:31:47.250Z,10.19
2017-10-25T04:34:15.664Z,10.16
2017-10-25T04:36:43.200Z,10.08
2017-10-25T04:39:10.714Z,10.00
2017-10-25T04:41:44.928Z,9.97
2017-10-25T04:44:12.467Z,9.92
2017-10-25T04:46:40.007Z,9.90
2017-10-25T04:49:07.529Z,9.88
2017-10-25T04:51:35.107Z,9.87
2017-10-25T04:54:02.657Z,9.79
2017-10-25T04:56:30.162Z,9.75
2017-10-25T04:58:57.686Z,9.38
2017-10-25T05:01:25.214Z,9.33
2017-10-25T05:03:52.782Z,9.34
2017-10-25T05:06:20.288Z,9.18
2017-10-25T05:08:47.791Z,9.14
2017-10-25T05:11:15.298Z,8.97
2017-10-25T05:13:42.815Z,9.10
2017-10-25T05:16:10.320Z,9.12
2017-10-25T05:18:37.838Z,9.06
2017-10-25T05:21:05.353Z,9.02
2017-10-25T05:35:17.502Z,8.23
2017-10-25T05:37:45.008Z,8.40
2017-10-25T05:40:12.531Z,8.30
2017-10-25T05:42:40.035Z,8.36
2017-10-25T05:45:07.540Z,8.09
2017-10-25T05:47:35.049Z,8.06
2017-10-25T05:50:02.553Z,8.12
2017-10-25T05:52:30.057Z,8.03
2017-10-25T05:54:57.572Z,8.21
2017-10-25T05:57:25.081Z,8.01
2017-10-25T05:59:52.604Z,8.07
2017-10-25T06:02:20.128Z,8.31
2017-10-25T06:07:48.843Z,8.11
2017-10-25T06:10:16.373Z,8.19
2017-10-25T06:12:43.909Z,7.98
2017-10-25T06:15:11.442Z,8.12
2017-10-25T06:17:38.983Z,8.32
2017-10-25T06:20:06.500Z,8.27
2017-10-25T06:22:34.008Z,8.52
2017-10-25T06:25:01.534Z,8.62
2017-10-25T06:27:38.978Z,8.78
2017-10-25T06:30:07.479Z,8.73
2017-10-25T06:32:34.983Z,8.68
2017-10-25T06:35:02.488Z,8.71
2017-10-25T06:37:29.996Z,8.70
2017-10-25T06:39:57.508Z,8.82
2017-10-25T06:42:25.020Z,8.81
2017-10-25T06:44:52.545Z,9.00
2017-10-25T06:47:20.051Z,9.09
2017-10-25T06:49:57.487Z,9.11
2017-10-25T06:52:24.986Z,9.21
2017-10-25T06:54:52.507Z,9.30
2017-10-25T06:57:22.877Z,9.35
2017-10-25T06:59:50.424Z,9.51
2017-10-25T07:02:17.956Z,9.83
2017-10-25T07:04:45.480Z,9.76
2017-10-25T07:07:12.977Z,9.96
2017-10-25T07:09:40.482Z,9.66
2017-10-25T07:12:08.009Z,9.61
2017-10-25T07:14:35.527Z,9.66
2017-10-25T07:17:03.052Z,9.69
2017-10-25T07:19:30.556Z,9.59
2017-10-25T07:21:58.067Z,9.78
2017-10-25T07:24:25.586Z,10.00
2017-10-25T07:26:53.098Z,10.35
2017-10-25T07:29:20.604Z,10.53
2017-10-25T07:31:48.118Z,10.49
2017-10-25T07:34:15.655Z,10.45
2017-10-25T07:36:43.176Z,10.38
2017-10-25T07:39:10.685Z,10.53
2017-10-25T07:41:38.198Z,10.56
2017-10-25T07:44:05.722Z,10.80
2017-10-25T07:46:43.163Z,11.01
2017-10-25T07:49:10.667Z,11.33
2017-10-25T07:51:38.177Z,11.26
2017-10-25T07:54:05.696Z,11.56
2017-10-25T07:56:33.200Z,11.80
2017-10-25T07:59:00.706Z,11.89
2017-10-25T08:01:28.204Z,13.40
2017-10-25T08:15:28.547Z,16.22
2017-10-25T08:17:56.055Z,15.95
2017-10-25T08:20:23.562Z,15.86
2017-10-25T08:22:51.101Z,15.48
2017-10-25T08:25:18.603Z,15.31
2017-10-25T08:27:46.099Z,14.09
2017-10-25T08:30:13.639Z,13.49
2017-10-25T08:32:41.160Z,14.25
2017-10-25T08:35:08.669Z,14.38
2017-10-25T08:37:36.203Z,14.61
2017-10-25T08:40:03.767Z,14.19
2017-10-25T08:42:31.728Z,14.44
2017-10-25T08:44:59.341Z,14.27
2017-10-25T08:47:26.835Z,14.88
2017-10-25T08:49:56.027Z,15.35
2017-10-25T08:52:23.547Z,15.08
2017-10-25T08:54:51.998Z,14.87
2017-10-25T08:57:19.524Z,15.55
2017-10-25T08:59:47.078Z,15.61
2017-10-25T09:02:14.642Z,15.55
2017-10-25T09:04:42.144Z,15.14
2017-10-25T09:07:09.656Z,15.15
2017-10-25T09:09:44.138Z,15.06
2017-10-25T09:12:11.659Z,15.32
2017-10-25T09:14:39.163Z,15.42
2017-10-25T09:17:06.699Z,14.90
2017-10-25T09:19:34.209Z,14.68
2017-10-25T09:22:01.746Z,14.81
2017-10-25T09:24:29.263Z,15.00
2017-10-25T09:26:56.778Z,14.91
2017-10-25T09:29:24.285Z,15.25
2017-10-25T09:31:51.801Z,15.52
2017-10-25T09:34:19.313Z,16.28
2017-10-25T09:36:46.814Z,17.35
2017-10-25T09:39:14.343Z,19.88
2017-10-25T09:41:41.914Z,19.73
2017-10-25T09:44:09.426Z,22.59
2017-10-25T09:46:36.953Z,21.01
2017-10-25T09:49:04.468Z,19.37
2017-10-25T09:51:31.979Z,19.12
2017-10-25T09:53:59.483Z,19.85
2017-10-25T09:56:26.983Z,18.91
2017-10-25T09:58:55.084Z,19.11
2017-10-25T10:01:22.593Z,19.65
2017-10-25T10:15:24.607Z,18.36
2017-10-25T10:17:52.305Z,18.14
2017-10-25T10:20:19.823Z,17.70
2017-10-25T10:22:47.371Z,17.77
2017-10-25T10:25:14.912Z,17.72
2017-10-25T10:27:42.420Z,18.03
2017-10-25T10:30:09.933Z,19.81
2017-10-25T10:32:40.392Z,19.79
2017-10-25T10:35:07.906Z,22.01
2017-10-25T10:37:35.413Z,20.59
2017-10-25T10:40:02.931Z,21.48
2017-10-25T10:42:30.477Z,23.06
2017-10-25T10:44:57.992Z,23.75
2017-10-25T10:47:25.511Z,23.92
2017-10-25T10:49:53.032Z,26.33
2017-10-25T10:52:20.562Z,26.66
2017-10-25T10:54:48.067Z,28.31
2017-10-25T10:57:15.684Z,27.63
2017-10-25T10:59:43.191Z,27.67
2017-10-25T11:02:10.697Z,28.47
2017-10-25T11:04:38.211Z,30.14
2017-10-25T11:07:05.728Z,29.72
2017-10-25T11:09:33.262Z,29.52
2017-10-25T11:12:00.784Z,29.20
2017-10-25T11:14:28.300Z,31.19
2017-10-25T11:16:55.821Z,29.05
2017-10-25T11:19:23.356Z,24.42
2017-10-25T11:21:50.852Z,23.05
2017-10-25T11:24:18.363Z,25.88
2017-10-25T11:26:45.867Z,28.45
2017-10-25T11:29:13.400Z,28.77
2017-10-25T11:31:45.951Z,29.22
2017-10-25T11:34:13.476Z,29.71
2017-10-25T11:36:40.996Z,27.78
2017-10-25T11:39:08.511Z,25.62
2017-10-25T11:41:36.028Z,29.07
2017-10-25T11:44:03.540Z,29.41
2017-10-25T11:46:31.057Z,30.91
2017-10-25T11:48:58.584Z,29.42
2017-10-25T11:51:26.114Z,26.59
2017-10-25T11:53:53.635Z,25.76
2017-10-25T11:56:21.164Z,23.81
2017-10-25T11:58:48.684Z,24.06
2017-10-25T12:01:16.219Z,23.47
2017-10-25T12:03:43.812Z,22.76
2017-10-25T12:06:11.337Z,22.08
2017-10-25T12:08:50.647Z,21.10
2017-10-25T12:11:18.218Z,21.62
2017-10-25T12:13:45.749Z,21.97
2017-10-25T12:16:13.273Z,22.61
2017-10-25T12:18:40.797Z,22.13
2017-10-25T12:21:08.299Z,22.82
2017-10-25T12:23:37.520Z,23.72
2017-10-25T12:26:05.032Z,25.43
2017-10-25T12:28:33.419Z,26.19
2017-10-25T12:31:00.930Z,26.91
2017-10-25T12:33:28.471Z,27.98
2017-10-25T12:35:55.982Z,29.43
2017-10-25T12:38:23.911Z,31.47
2017-10-25T12:40:51.435Z,31.47
2017-10-25T12:43:18.944Z,31.43
2017-10-25T12:45:46.439Z,32.91
2017-10-25T12:48:13.944Z,31.33
2017-10-25T12:50:41.458Z,28.33
2017-10-25T12:53:08.972Z,27.01
2017-10-25T12:55:36.477Z,27.92
2017-10-25T12:58:04.033Z,28.81
2017-10-25T13:00:31.536Z,26.99
2017-10-25T13:02:59.061Z,25.85
2017-10-25T13:05:29.359Z,25.96
2017-10-25T13:07:56.903Z,26.51
2017-10-25T13:10:35.135Z,25.32
2017-10-25T13:16:11.817Z,24.53
2017-10-25T13:18:44.334Z,25.90
2017-10-25T13:21:11.853Z,25.23
2017-10-25T13:23:39.365Z,24.74
2017-10-25T13:26:06.914Z,24.85
2017-10-25T13:28:34.451Z,25.21
2017-10-25T13:31:02.008Z,25.06
2017-10-25T13:33:39.953Z,25.99
2017-10-25T13:36:07.479Z,24.28
2017-10-25T13:38:34.996Z,25.92
2017-10-25T13:41:17.050Z,26.73
2017-10-25T13:43:44.576Z,24.92
2017-10-25T13:46:12.092Z,24.61
2017-10-25T13:48:39.616Z,23.38
2017-10-25T13:51:07.133Z,22.83
2017-10-25T13:53:34.649Z,21.99
2017-10-25T13:56:02.174Z,21.87
2017-10-25T13:58:29.688Z,21.79
2017-10-25T14:00:57.220Z,21.44
2017-10-25T14:03:28.412Z,21.48
2017-10-25T14:05:55.940Z,21.46
2017-10-25T14:08:23.482Z,21.36
2017-10-25T14:10:51.112Z,21.45
2017-10-25T14:13:18.636Z,21.48
2017-10-25T14:15:46.168Z,21.54
2017-10-25T14:18:13.692Z,21.91
2017-10-25T14:20:41.216Z,21.47
2017-10-25T14:23:08.734Z,21.65
2017-10-25T14:25:36.251Z,21.88
2017-10-25T14:28:15.610Z,21.78
2017-10-25T14:30:43.983Z,21.65
2017-10-25T14:33:11.495Z,21.73
2017-10-25T14:35:38.995Z,21.34
2017-10-25T14:38:06.590Z,21.41
2017-10-25T14:40:34.096Z,20.97
2017-10-25T14:43:01.651Z,20.96
2017-10-25T14:45:29.155Z,21.02
2017-10-25T14:50:38.353Z,21.71
2017-10-25T14:53:05.854Z,21.92
2017-10-25T14:55:33.388Z,21.38
2017-10-25T14:58:00.919Z,20.91
2017-10-25T15:00:28.423Z,20.50
2017-10-25T15:02:56.002Z,20.23
2017-10-25T15:05:23.524Z,20.15
2017-10-25T15:07:51.034Z,20.07
2017-10-25T15:10:18.545Z,19.96
2017-10-25T15:12:46.063Z,19.79
2017-10-25T15:15:13.584Z,19.87
2017-10-25T15:17:41.104Z,19.86
2017-10-25T15:20:08.624Z,19.56
2017-10-25T15:22:36.144Z,19.52
2017-10-25T15:25:03.692Z,19.31
2017-10-25T15:27:44.747Z,19.17
2017-10-25T15:30:12.280Z,18.90
2017-10-25T15:32:39.798Z,18.55
2017-10-25T15:38:05.844Z,18.71
2017-10-25T15:40:33.425Z,18.55
2017-10-25T15:43:00.935Z,18.30
2017-10-25T15:45:28.578Z,18.08
2017-10-25T15:47:56.105Z,17.79
2017-10-25T15:50:23.644Z,17.34
2017-10-25T15:52:51.183Z,17.21
2017-10-25T15:55:18.688Z,17.22
2017-10-25T15:57:46.208Z,16.90
2017-10-25T16:00:13.744Z,16.62
2017-10-25T16:02:41.260Z,16.42
2017-10-25T16:05:08.788Z,15.84
2017-10-25T16:07:36.333Z,15.69
2017-10-25T16:10:08.387Z,15.62
2017-10-25T16:12:35.900Z,15.50
2017-10-25T16:15:03.437Z,15.32
2017-10-25T16:17:30.970Z,15.37
2017-10-25T16:19:58.494Z,15.11
2017-10-25T16:22:26.007Z,14.63
2017-10-25T16:24:53.570Z,14.51
2017-10-25T16:27:21.242Z,14.61
2017-10-25T16:29:48.756Z,14.71
2017-10-25T16:32:17.242Z,14.99
2017-10-25T16:46:16.642Z,13.99
2017-10-25T16:48:44.160Z,13.72
2017-10-25T16:51:11.724Z,13.55
2017-10-25T16:53:39.241Z,13.61
2017-10-25T16:56:06.757Z,13.90
2017-10-25T16:58:34.304Z,13.87
2017-10-25T17:01:01.826Z,13.86
2017-10-25T17:03:29.353Z,13.68
2017-10-25T17:05:56.872Z,13.57
2017-10-25T17:08:24.400Z,13.55
2017-10-25T17:10:51.956Z,13.51
2017-10-25T17:13:19.489Z,13.20
2017-10-25T17:15:47.023Z,13.13
2017-10-25T17:18:14.562Z,12.60
2017-10-25T17:20:42.119Z,12.59
2017-10-25T17:23:09.648Z,12.77
2017-10-25T17:25:37.167Z,13.18
2017-10-25T17:28:04.695Z,13.37
2017-10-25T17:30:32.295Z,13.51
2017-10-25T17:35:56.062Z,12.95
2017-10-25T17:38:23.624Z,12.92
2017-10-25T17:40:51.209Z,13.12
2017-10-25T17:43:18.736Z,12.78
2017-10-25T17:45:46.408Z,12.45
2017-10-25T17:48:13.936Z,12.66
2017-10-25T17:50:41.499Z,12.66
2017-10-25T17:53:09.030Z,12.47
2017-10-25T17:55:36.571Z,12.95
2017-10-25T17:58:04.118Z,12.79
2017-10-25T18:00:31.643Z,12.89
2017-10-25T18:02:59.182Z,12.22
2017-10-25T18:05:27.095Z,11.79
2017-10-25T18:07:54.601Z,11.64
2017-10-25T18:10:22.120Z,11.78
2017-10-25T18:13:00.076Z,12.04
2017-10-25T18:18:23.855Z,12.10
2017-10-25T18:20:51.400Z,12.12
2017-10-25T18:23:18.937Z,12.29
2017-10-25T18:25:46.468Z,12.27
2017-10-25T18:28:13.996Z,12.30
2017-10-25T18:30:41.526Z,11.73
2017-10-25T18:33:09.043Z,11.49
2017-10-25T18:47:13.250Z,11.87
2017-10-25T18:49:40.781Z,11.40
2017-10-25T18:52:08.313Z,11.37
2017-10-25T18:54:35.837Z,11.62
2017-10-25T18:57:03.410Z,11.46
2017-10-25T18:59:30.952Z,11.29
2017-10-25T19:01:58.595Z,11.26
2017-10-25T19:04:26.124Z,11.21
2017-10-25T19:06:53.662Z,11.27
2017-10-25T19:09:21.168Z,11.42
2017-10-25T19:11:50.100Z,11.62
2017-10-25T19:14:17.594Z,11.64
2017-10-25T19:16:45.128Z,11.45
2017-10-25T19:19:12.676Z,11.43
2017-10-25T19:21:40.197Z,10.97
2017-10-25T19:24:07.736Z,10.75
2017-10-25T19:26:35.310Z,10.81
2017-10-25T19:29:03.023Z,10.99
2017-10-25T19:31:42.278Z,11.17
2017-10-25T19:34:09.795Z,11.44
2017-10-25T19:36:37.445Z,11.38
2017-10-25T19:39:05.056Z,11.36
2017-10-25T19:41:32.604Z,11.77
2017-10-25T19:44:00.111Z,11.85
2017-10-25T19:46:27.673Z,12.01
2017-10-25T19:48:55.328Z,12.21
2017-10-25T19:51:22.887Z,12.23
2017-10-25T19:53:50.427Z,12.27
2017-10-25T19:56:17.989Z,12.12
2017-10-25T19:58:45.543Z,11.90
2017-10-25T20:01:13.114Z,11.90
2017-10-25T20:03:48.515Z,11.94
2017-10-25T20:06:16.041Z,12.14
2017-10-25T20:08:43.573Z,12.39
2017-10-25T20:11:11.085Z,12.08
2017-10-25T20:13:38.684Z,11.71
2017-10-25T20:16:06.248Z,11.74
2017-10-25T20:18:33.770Z,11.91
2017-10-25T20:21:01.302Z,11.81
2017-10-25T20:23:28.814Z,11.41
2017-10-25T20:25:57.220Z,11.20
2017-10-25T20:28:24.787Z,11.17
2017-10-25T20:30:52.317Z,11.28
2017-10-25T20:33:19.835Z,11.40
2017-10-25T20:35:47.364Z,11.43
2017-10-25T20:38:14.875Z,11.61
2017-10-25T20:40:42.394Z,11.79
2017-10-25T20:43:09.916Z,11.88
2017-10-25T20:45:37.465Z,11.72
2017-10-25T20:48:06.710Z,11.84
2017-10-25T20:50:34.245Z,12.00
2017-10-25T20:53:01.790Z,12.22
2017-10-25T20:55:39.833Z,12.25
2017-10-25T20:58:07.336Z,12.41
2017-10-25T21:00:34.862Z,12.51
2017-10-25T21:03:18.175Z,12.47
2017-10-25T21:05:45.697Z,12.69
2017-10-25T21:08:13.223Z,12.74
2017-10-25T21:10:40.729Z,12.74
2017-10-25T21:13:08.244Z,12.69
2017-10-25T21:15:39.769Z,12.50
2017-10-25T21:18:07.281Z,12.50
2017-10-25T21:20:44.725Z,12.55
2017-10-25T21:23:12.269Z,12.40
2017-10-25T21:25:39.790Z,12.47
2017-10-25T21:28:07.324Z,12.55
2017-10-25T21:30:34.835Z,12.37
2017-10-25T21:33:02.350Z,12.50
2017-10-25T21:35:29.872Z,12.72
2017-10-25T21:37:57.405Z,12.98
2017-10-25T21:43:21.108Z,13.00
2017-10-25T21:45:48.637Z,12.95
2017-10-25T21:48:16.175Z,13.02
2017-10-25T21:50:43.677Z,12.92
2017-10-25T21:53:12.007Z,13.14
2017-10-25T21:55:39.527Z,13.02
2017-10-25T21:58:07.033Z,13.00
2017-10-25T22:00:34.563Z,12.86
2017-10-25T22:03:02.080Z,12.81
2017-10-25T22:05:29.606Z,12.68
2017-10-25T22:07:57.111Z,12.70
2017-10-25T22:10:24.641Z,12.78
2017-10-25T22:13:02.085Z,12.87
2017-10-25T22:15:29.610Z,12.99
2017-10-25T22:17:57.119Z,12.80
2017-10-25T22:31:57.474Z,12.83
2017-10-25T22:34:24.991Z,12.89
2017-10-25T22:36:52.504Z,12.90
2017-10-25T22:39:20.013Z,12.87
2017-10-25T22:41:47.545Z,12.91
2017-10-25T22:44:15.090Z,12.88
2017-10-25T22:46:42.720Z,13.08
2017-10-25T22:49:10.242Z,12.91
2017-10-25T22:51:40.564Z,12.88
2017-10-25T22:54:08.066Z,13.06
2017-10-25T22:56:35.605Z,13.26
2017-10-25T22:59:03.119Z,13.26
2017-10-25T23:01:30.657Z,13.11
2017-10-25T23:03:58.169Z,12.87
2017-10-25T23:06:25.705Z,12.89
2017-10-25T23:08:53.240Z,12.97
2017-10-25T23:11:24.089Z,12.84
2017-10-25T23:13:51.621Z,13.02
2017-10-25T23:16:19.146Z,12.96
2017-10-25T23:18:46.672Z,13.20
2017-10-25T23:21:14.172Z,12.99
2017-10-25T23:23:41.705Z,12.95
2017-10-25T23:26:21.848Z,13.06
2017-10-25T23:28:53.379Z,12.97
2017-10-25T23:42:52.796Z,13.04
2017-10-25T23:45:30.231Z,13.11
2017-10-25T23:47:57.760Z,13.24
2017-10-25T23:50:35.918Z,13.26
2017-10-25T23:53:03.423Z,13.24
2017-10-25T23:55:30.957Z,13.10
2017-10-25T23:57:58.485Z,13.19
